createdAt,value
2023-02-14T00:00:44.815Z,34.63
2023-02-14T00:03:12.910Z,35.33
2023-02-14T00:05:39.497Z,33.22
2023-02-14T00:08:06.077Z,42.92
2023-02-14T00:10:32.647Z,39.92
2023-02-14T00:12:59.290Z,45.85
2023-02-14T00:15:26.017Z,37.77
2023-02-14T00:17:55.293Z,36.60
2023-02-14T00:20:23.191Z,32.35
2023-02-14T00:22:50.065Z,35.42
2023-02-14T00:25:18.431Z,27.60
2023-02-14T00:27:45.205Z,31.40
2023-02-14T00:30:13.765Z,34.97
2023-02-14T00:32:41.685Z,33.58
2023-02-14T00:35:09.573Z,27.67
2023-02-14T00:37:36.806Z,29.73
2023-02-14T00:40:03.940Z,31.83
2023-02-14T00:42:32.004Z,32.67
2023-02-14T00:44:58.722Z,33.70
2023-02-14T00:47:25.487Z,30.90
2023-02-14T00:49:52.150Z,31.52
2023-02-14T00:52:19.092Z,26.73
2023-02-14T00:54:45.808Z,27.10
2023-02-14T00:57:12.549Z,26.20
2023-02-14T00:59:39.328Z,28.33
2023-02-14T01:02:06.070Z,30.55
2023-02-14T01:04:32.679Z,31.27
2023-02-14T01:06:59.334Z,27.25
2023-02-14T01:09:26.040Z,40.15
2023-02-14T01:11:52.900Z,33.13
2023-02-14T01:14:19.616Z,24.98
2023-02-14T01:16:46.270Z,30.43
2023-02-14T01:19:13.211Z,33.83
2023-02-14T01:21:39.832Z,35.95
2023-02-14T01:24:08.187Z,34.05
2023-02-14T01:26:35.609Z,31.88
2023-02-14T01:29:05.415Z,36.33
2023-02-14T01:31:34.187Z,35.63
2023-02-14T01:34:01.973Z,40.28
2023-02-14T01:36:31.778Z,48.38
2023-02-14T01:39:02.327Z,42.55
2023-02-14T01:41:31.695Z,35.37
2023-02-14T01:43:59.977Z,40.47
2023-02-14T01:46:30.137Z,40.92
2023-02-14T01:49:05.751Z,43.10
2023-02-14T01:51:34.160Z,31.38
2023-02-14T01:54:02.124Z,32.13
2023-02-14T01:56:36.375Z,42.88
2023-02-14T01:59:07.140Z,33.45
2023-02-14T02:01:34.133Z,29.42
2023-02-14T02:04:08.320Z,33.72
2023-02-14T02:06:44.707Z,30.80
2023-02-14T02:09:17.145Z,26.98
2023-02-14T02:11:44.279Z,39.50
2023-02-14T02:14:17.003Z,42.85
2023-02-14T02:17:06.568Z,31.77
2023-02-14T02:20:05.419Z,34.23
2023-02-14T02:22:53.627Z,33.10
2023-02-14T02:25:55.158Z,43.28
2023-02-14T02:29:03.810Z,26.55
2023-02-14T02:31:54.958Z,32.47
2023-02-14T02:34:53.265Z,34.73
2023-02-14T02:37:30.177Z,28.25
2023-02-14T02:40:22.421Z,27.65
2023-02-14T02:43:01.609Z,40.47
2023-02-14T02:45:59.697Z,29.73
2023-02-14T02:48:35.935Z,28.77
2023-02-14T02:51:25.535Z,39.47
2023-02-14T02:53:59.615Z,27.83
2023-02-14T02:56:49.710Z,33.65
2023-02-14T02:59:27.894Z,28.67
2023-02-14T03:02:03.381Z,33.10
2023-02-14T03:04:53.123Z,26.85
2023-02-14T03:07:39.512Z,26.90
2023-02-14T03:10:18.653Z,25.25
2023-02-14T03:12:48.118Z,25.98
2023-02-14T03:15:41.641Z,27.23
2023-02-14T03:18:29.383Z,31.58
2023-02-14T03:21:17.971Z,33.95
2023-02-14T03:24:11.602Z,35.35
2023-02-14T03:26:48.452Z,37.83
2023-02-14T03:29:31.743Z,31.60
2023-02-14T03:32:10.917Z,40.85
2023-02-14T03:35:10.279Z,43.08
2023-02-14T03:38:04.069Z,47.75
2023-02-14T03:40:58.319Z,42.78
2023-02-14T03:43:40.494Z,39.33
2023-02-14T03:46:26.840Z,42.60
2023-02-14T03:48:57.128Z,46.72
2023-02-14T03:51:24.718Z,48.72
2023-02-14T03:53:56.323Z,46.92
2023-02-14T03:56:23.204Z,32.83
2023-02-14T03:58:56.265Z,52.75
2023-02-14T04:01:35.994Z,59.35
2023-02-14T04:04:06.357Z,55.10
2023-02-14T04:06:33.370Z,48.67
2023-02-14T04:09:00.327Z,48.07
2023-02-14T04:11:28.075Z,60.95
2023-02-14T04:13:54.643Z,50.33
2023-02-14T04:16:21.256Z,52.63
2023-02-14T04:19:06.005Z,42.83
2023-02-14T04:21:32.691Z,50.50
2023-02-14T04:23:59.242Z,50.35
2023-02-14T04:26:26.040Z,60.80
2023-02-14T04:28:52.556Z,55.55
2023-02-14T04:31:19.216Z,51.67
2023-02-14T04:33:48.158Z,60.53
2023-02-14T04:36:14.785Z,77.53
2023-02-14T04:38:41.378Z,50.78
2023-02-14T04:41:07.970Z,51.40
2023-02-14T04:43:34.503Z,67.50
2023-02-14T04:46:01.104Z,46.13
2023-02-14T04:48:27.693Z,66.15
2023-02-14T04:50:55.666Z,59.28
2023-02-14T04:53:22.735Z,51.92
2023-02-14T04:55:49.996Z,68.80
2023-02-14T04:58:17.608Z,71.57
2023-02-14T05:00:44.667Z,57.22
2023-02-14T05:03:11.481Z,64.28
2023-02-14T05:05:38.291Z,73.03
2023-02-14T05:08:05.014Z,54.67
2023-02-14T05:10:31.811Z,55.63
2023-02-14T05:12:58.651Z,64.90
2023-02-14T05:15:25.746Z,74.18
2023-02-14T05:17:52.533Z,78.00
2023-02-14T05:20:19.226Z,49.70
2023-02-14T05:22:45.986Z,69.70
2023-02-14T05:25:12.706Z,53.83
2023-02-14T05:27:39.376Z,62.55
2023-02-14T05:30:06.643Z,68.25
2023-02-14T05:32:33.334Z,50.75
2023-02-14T05:35:01.438Z,63.17
2023-02-14T05:37:28.369Z,68.05
2023-02-14T05:39:55.087Z,57.55
2023-02-14T05:42:21.764Z,57.60
2023-02-14T05:44:49.011Z,71.90
2023-02-14T05:47:15.748Z,51.80
2023-02-14T05:49:42.208Z,59.45
2023-02-14T05:52:09.243Z,57.95
2023-02-14T05:54:36.042Z,63.35
2023-02-14T05:57:02.824Z,66.07
2023-02-14T05:59:29.413Z,57.27
2023-02-14T06:01:56.055Z,74.18
2023-02-14T06:04:22.883Z,63.58
2023-02-14T06:06:49.531Z,57.78
2023-02-14T06:09:16.359Z,59.08
2023-02-14T06:11:42.993Z,49.67
2023-02-14T06:14:09.548Z,50.08
2023-02-14T06:16:36.285Z,54.90
2023-02-14T06:19:02.932Z,56.95
2023-02-14T06:21:29.515Z,59.03
2023-02-14T06:23:56.021Z,63.70
2023-02-14T06:26:22.701Z,53.33
2023-02-14T06:28:56.897Z,53.58
2023-02-14T06:31:24.205Z,57.05
2023-02-14T06:33:52.073Z,61.30
2023-02-14T06:36:19.615Z,51.53
2023-02-14T06:38:48.098Z,54.15
2023-02-14T06:41:17.061Z,38.00
2023-02-14T06:43:45.860Z,58.08
2023-02-14T06:46:12.488Z,57.78
2023-02-14T06:48:39.064Z,46.07
2023-02-14T06:51:05.920Z,63.55
2023-02-14T06:53:32.552Z,52.05
2023-02-14T06:55:59.115Z,61.40
2023-02-14T06:58:25.713Z,59.95
2023-02-14T07:00:54.688Z,68.73
2023-02-14T07:03:21.330Z,62.80
2023-02-14T07:05:47.995Z,66.57
2023-02-14T07:08:14.582Z,59.05
2023-02-14T07:10:41.165Z,59.10
2023-02-14T07:13:07.809Z,55.90
2023-02-14T07:15:34.428Z,60.50
2023-02-14T07:18:01.145Z,54.95
2023-02-14T07:20:27.768Z,62.42
2023-02-14T07:22:55.133Z,54.08
2023-02-14T07:25:22.046Z,55.83
2023-02-14T07:27:48.717Z,52.10
2023-02-14T07:30:15.476Z,52.42
2023-02-14T07:32:42.119Z,44.08
2023-02-14T07:35:08.982Z,55.05
2023-02-14T07:37:36.130Z,56.37
2023-02-14T07:40:03.026Z,53.33
2023-02-14T07:42:29.744Z,57.75
2023-02-14T07:44:56.319Z,54.40
2023-02-14T07:47:22.843Z,47.97
2023-02-14T07:49:49.402Z,75.73
2023-02-14T07:52:16.081Z,62.15
2023-02-14T07:54:42.788Z,61.45
2023-02-14T07:57:09.576Z,62.40
2023-02-14T07:59:36.166Z,71.80
2023-02-14T08:02:02.834Z,54.00
2023-02-14T08:04:30.320Z,74.25
2023-02-14T08:06:58.424Z,78.47
2023-02-14T08:09:24.969Z,69.72
2023-02-14T08:12:11.887Z,63.53
2023-02-14T08:14:38.409Z,77.33
2023-02-14T08:17:07.301Z,63.47
2023-02-14T08:19:34.417Z,64.07
2023-02-14T08:22:01.048Z,51.38
2023-02-14T08:24:28.095Z,77.90
2023-02-14T08:26:54.791Z,73.00
2023-02-14T08:29:21.460Z,69.97
2023-02-14T08:31:49.192Z,75.53
2023-02-14T08:34:18.259Z,80.78
2023-02-14T08:36:44.912Z,76.78
2023-02-14T08:39:11.572Z,70.33
2023-02-14T08:41:38.218Z,64.45
2023-02-14T08:44:05.045Z,66.18
2023-02-14T08:46:31.755Z,75.07
2023-02-14T08:48:58.400Z,77.32
2023-02-14T08:51:26.089Z,70.10
2023-02-14T08:53:53.262Z,81.80
2023-02-14T08:56:21.479Z,66.75
2023-02-14T08:58:48.193Z,63.75
2023-02-14T09:01:17.017Z,49.10
2023-02-14T09:03:44.657Z,65.90
2023-02-14T09:06:15.872Z,58.10
2023-02-14T09:08:43.217Z,68.43
2023-02-14T09:11:12.507Z,59.25
2023-02-14T09:13:39.116Z,63.35
2023-02-14T09:16:07.416Z,63.80
2023-02-14T09:18:34.453Z,57.78
2023-02-14T09:21:01.757Z,50.70
2023-02-14T09:23:28.537Z,52.67
2023-02-14T09:26:03.730Z,52.45
2023-02-14T09:28:31.123Z,47.60
2023-02-14T09:30:58.364Z,56.58
2023-02-14T09:33:29.218Z,50.83
2023-02-14T09:36:16.605Z,57.42
2023-02-14T09:38:43.133Z,49.60
2023-02-14T09:41:21.487Z,52.53
2023-02-14T09:43:56.906Z,46.65
2023-02-14T09:46:25.808Z,53.20
2023-02-14T09:48:54.711Z,53.22
2023-02-14T09:51:25.543Z,46.50
2023-02-14T09:54:01.982Z,41.90
2023-02-14T09:56:52.082Z,45.83
2023-02-14T09:59:39.829Z,50.35
2023-02-14T10:02:06.797Z,61.83
2023-02-14T10:04:46.555Z,48.75
2023-02-14T10:07:29.205Z,54.47
2023-02-14T10:10:01.836Z,55.03
2023-02-14T10:12:31.056Z,46.05
2023-02-14T10:15:01.212Z,47.45
2023-02-14T10:17:40.034Z,39.90
2023-02-14T10:20:19.430Z,42.60
2023-02-14T10:23:10.914Z,35.80
2023-02-14T10:25:43.357Z,39.63
2023-02-14T10:28:14.684Z,34.53
2023-02-14T10:30:54.420Z,36.08
2023-02-14T10:33:26.991Z,43.60
2023-02-14T10:36:04.596Z,36.72
2023-02-14T10:38:46.878Z,38.63
2023-02-14T10:41:19.381Z,32.20
2023-02-14T10:44:19.790Z,37.03
2023-02-14T10:47:24.479Z,35.80
2023-02-14T10:49:56.506Z,37.55
2023-02-14T10:52:38.662Z,42.70
2023-02-14T10:55:32.463Z,36.85
2023-02-14T10:58:04.103Z,51.10
2023-02-14T11:00:34.421Z,35.17
2023-02-14T11:03:06.325Z,34.85
2023-02-14T11:05:41.596Z,36.42
2023-02-14T11:08:29.248Z,36.90
2023-02-14T11:11:05.365Z,34.83
2023-02-14T11:13:37.688Z,37.57
2023-02-14T11:16:12.098Z,35.28
2023-02-14T11:18:41.050Z,36.50
2023-02-14T11:21:12.989Z,38.83
2023-02-14T11:23:42.815Z,43.42
2023-02-14T11:26:31.586Z,38.13
2023-02-14T11:29:02.284Z,42.20
2023-02-14T11:31:38.083Z,46.17
2023-02-14T11:34:24.859Z,36.47
2023-02-14T11:36:51.618Z,39.10
2023-02-14T11:39:27.185Z,38.20
2023-02-14T11:41:56.542Z,35.03
2023-02-14T11:44:26.202Z,35.42
2023-02-14T11:46:55.925Z,40.15
2023-02-14T11:49:28.524Z,44.35
2023-02-14T11:51:56.643Z,38.07
2023-02-14T11:54:48.411Z,45.78
2023-02-14T11:57:32.362Z,36.80
2023-02-14T12:00:03.322Z,35.72
2023-02-14T12:02:45.405Z,41.50
2023-02-14T12:05:20.528Z,44.77
2023-02-14T12:07:50.081Z,36.78
2023-02-14T12:10:28.256Z,38.90
2023-02-14T12:12:56.331Z,41.50
2023-02-14T12:15:34.563Z,43.65
2023-02-14T12:18:33.469Z,42.27
2023-02-14T12:21:16.201Z,44.90
2023-02-14T12:23:50.756Z,43.80
2023-02-14T12:26:32.210Z,39.75
2023-02-14T12:29:36.136Z,38.80
2023-02-14T12:32:13.710Z,42.53
2023-02-14T12:34:40.400Z,35.53
2023-02-14T12:37:28.418Z,45.05
2023-02-14T12:40:12.118Z,43.35
2023-02-14T12:42:54.658Z,41.45
2023-02-14T12:46:14.075Z,47.23
2023-02-14T12:49:11.229Z,45.22
2023-02-14T12:51:52.491Z,43.90
2023-02-14T12:54:33.931Z,45.00
2023-02-14T12:57:30.885Z,49.63
2023-02-14T13:00:03.395Z,46.40
2023-02-14T13:02:50.882Z,47.03
2023-02-14T13:05:35.751Z,45.30
2023-02-14T13:08:28.093Z,37.75
2023-02-14T13:11:09.587Z,47.17
2023-02-14T13:14:12.179Z,42.53
2023-02-14T13:16:50.902Z,44.65
2023-02-14T13:19:36.382Z,44.72
2023-02-14T13:22:06.196Z,40.47
2023-02-14T13:24:42.599Z,43.33
2023-02-14T13:27:16.222Z,39.43
2023-02-14T13:29:53.222Z,45.35
2023-02-14T13:32:24.268Z,49.50
2023-02-14T13:34:51.287Z,45.90
2023-02-14T13:37:21.280Z,47.33
2023-02-14T13:39:55.447Z,47.37
2023-02-14T13:42:46.780Z,40.80
2023-02-14T13:45:37.862Z,45.10
2023-02-14T13:48:07.247Z,46.60
2023-02-14T13:50:37.040Z,54.38
2023-02-14T13:53:03.602Z,51.63
2023-02-14T13:55:36.327Z,46.05
2023-02-14T13:58:21.790Z,42.95
2023-02-14T14:00:49.839Z,44.53
2023-02-14T14:03:39.111Z,44.70
2023-02-14T14:06:11.566Z,46.90
2023-02-14T14:08:54.453Z,46.80
2023-02-14T14:11:20.913Z,41.75
2023-02-14T14:14:02.609Z,46.67
2023-02-14T14:16:33.402Z,45.63
2023-02-14T14:19:09.150Z,50.60
2023-02-14T14:21:41.347Z,45.47
2023-02-14T14:24:53.805Z,46.00
2023-02-14T14:27:47.054Z,45.25
2023-02-14T14:30:22.205Z,46.78
2023-02-14T14:32:48.841Z,45.60
2023-02-14T14:35:15.852Z,45.67
2023-02-14T14:37:53.731Z,44.70
2023-02-14T14:40:24.940Z,43.97
2023-02-14T14:42:52.638Z,43.22
2023-02-14T14:45:24.042Z,49.03
2023-02-14T14:47:54.288Z,50.63
2023-02-14T14:50:27.595Z,47.83
2023-02-14T14:53:02.058Z,47.65
2023-02-14T14:55:32.969Z,47.17
2023-02-14T14:58:04.812Z,47.73
2023-02-14T15:00:34.554Z,51.35
2023-02-14T15:03:02.869Z,45.83
2023-02-14T15:05:32.803Z,46.28
2023-02-14T15:08:22.487Z,47.97
2023-02-14T15:11:01.068Z,47.67
2023-02-14T15:13:49.848Z,48.83
2023-02-14T15:16:19.307Z,49.20
2023-02-14T15:18:46.609Z,48.85
2023-02-14T15:21:14.454Z,46.63
2023-02-14T15:23:44.107Z,50.13
2023-02-14T15:26:18.415Z,50.08
2023-02-14T15:28:45.182Z,48.67
2023-02-14T15:31:12.481Z,50.53
2023-02-14T15:33:39.550Z,50.47
2023-02-14T15:36:15.938Z,52.57
2023-02-14T15:38:43.575Z,48.15
2023-02-14T15:41:14.021Z,48.05
2023-02-14T15:43:41.319Z,48.90
2023-02-14T15:46:27.265Z,45.83
2023-02-14T15:48:56.040Z,40.80
2023-02-14T15:51:31.804Z,50.40
2023-02-14T15:54:00.731Z,47.08
2023-02-14T15:56:30.523Z,51.40
2023-02-14T15:59:17.208Z,55.65
2023-02-14T16:01:51.623Z,52.30
2023-02-14T16:04:24.343Z,44.65
2023-02-14T16:07:16.198Z,55.33
2023-02-14T16:09:42.764Z,53.53
2023-02-14T16:12:29.852Z,48.63
2023-02-14T16:15:03.393Z,50.53
2023-02-14T16:17:37.037Z,50.22
2023-02-14T16:20:43.463Z,48.67
2023-02-14T16:23:27.515Z,48.50
2023-02-14T16:25:57.496Z,49.47
2023-02-14T16:28:27.889Z,55.23
2023-02-14T16:30:57.002Z,49.30
2023-02-14T16:33:28.504Z,50.72
2023-02-14T16:36:01.793Z,59.60
2023-02-14T16:38:28.379Z,55.45
2023-02-14T16:40:54.954Z,53.88
2023-02-14T16:43:21.626Z,46.00
2023-02-14T16:45:48.359Z,52.95
2023-02-14T16:48:17.924Z,57.97
2023-02-14T16:50:45.643Z,54.10
2023-02-14T16:53:23.994Z,53.92
2023-02-14T16:55:53.424Z,51.42
2023-02-14T16:58:22.946Z,61.42
2023-02-14T17:00:49.561Z,64.30
2023-02-14T17:03:16.325Z,58.60
2023-02-14T17:05:43.127Z,58.40
2023-02-14T17:08:12.718Z,55.38
2023-02-14T17:10:41.713Z,58.05
2023-02-14T17:13:10.281Z,58.53
2023-02-14T17:15:39.042Z,58.28
2023-02-14T17:18:11.901Z,59.88
2023-02-14T17:20:39.073Z,57.60
2023-02-14T17:23:05.856Z,72.20
2023-02-14T17:25:32.397Z,63.15
2023-02-14T17:28:01.026Z,73.32
2023-02-14T17:30:28.358Z,68.22
2023-02-14T17:32:54.877Z,62.85
2023-02-14T17:35:21.705Z,69.18
2023-02-14T17:37:48.332Z,70.80
2023-02-14T17:40:15.125Z,69.63
2023-02-14T17:42:42.246Z,63.22
2023-02-14T17:45:11.792Z,67.50
2023-02-14T17:47:40.588Z,61.55
2023-02-14T17:50:07.774Z,64.85
2023-02-14T17:52:34.460Z,58.30
2023-02-14T17:55:01.112Z,56.72
2023-02-14T17:57:27.623Z,58.50
2023-02-14T17:59:54.150Z,58.63
2023-02-14T18:02:20.692Z,46.38
2023-02-14T18:04:48.416Z,51.22
2023-02-14T18:07:15.036Z,47.20
2023-02-14T18:09:41.801Z,55.63
2023-02-14T18:12:14.639Z,61.55
2023-02-14T18:14:41.736Z,65.20
2023-02-14T18:17:08.370Z,69.20
2023-02-14T18:19:35.007Z,79.93
2023-02-14T18:22:01.554Z,89.18
2023-02-14T18:24:28.200Z,72.07
2023-02-14T18:26:55.442Z,64.45
2023-02-14T18:29:22.770Z,71.25
2023-02-14T18:31:49.407Z,70.32
2023-02-14T18:34:16.079Z,74.47
2023-02-14T18:36:42.657Z,73.18
2023-02-14T18:39:09.866Z,72.90
2023-02-14T18:41:36.652Z,56.17
2023-02-14T18:44:03.916Z,54.42
2023-02-14T18:46:33.858Z,60.22
2023-02-14T18:49:00.492Z,59.65
2023-02-14T18:51:29.409Z,57.10
2023-02-14T18:53:57.972Z,60.38
2023-02-14T18:56:28.853Z,58.40
2023-02-14T18:59:01.403Z,63.03
2023-02-14T19:01:34.459Z,64.03
2023-02-14T19:04:01.574Z,61.50
2023-02-14T19:06:30.285Z,80.18
2023-02-14T19:08:58.031Z,82.80
2023-02-14T19:11:29.476Z,72.47
2023-02-14T19:13:58.362Z,68.97
2023-02-14T19:16:28.436Z,77.82
2023-02-14T19:18:55.212Z,76.03
2023-02-14T19:21:24.813Z,80.85
2023-02-14T19:23:53.698Z,82.18
2023-02-14T19:26:23.310Z,69.07
2023-02-14T19:28:54.286Z,75.72
2023-02-14T19:31:21.083Z,82.55
2023-02-14T19:33:48.411Z,86.70
2023-02-14T19:36:17.079Z,90.15
2023-02-14T19:38:45.108Z,90.72
2023-02-14T19:41:20.314Z,93.90
2023-02-14T19:43:47.896Z,73.60
2023-02-14T19:46:16.134Z,67.07
2023-02-14T19:48:45.018Z,56.15
2023-02-14T19:51:21.521Z,52.85
2023-02-14T19:53:48.800Z,41.75
2023-02-14T19:56:23.860Z,47.53
2023-02-14T19:58:51.850Z,54.35
2023-02-14T20:01:29.199Z,49.30
2023-02-14T20:03:56.588Z,62.70
2023-02-14T20:06:24.897Z,54.90
2023-02-14T20:08:52.107Z,52.88
2023-02-14T20:11:35.735Z,52.08
2023-02-14T20:14:03.520Z,52.25
2023-02-14T20:16:32.111Z,55.22
2023-02-14T20:19:01.682Z,69.25
2023-02-14T20:21:28.598Z,57.47
2023-02-14T20:24:01.027Z,59.95
2023-02-14T20:26:28.947Z,53.85
2023-02-14T20:28:55.712Z,50.10
2023-02-14T20:31:22.389Z,49.60
2023-02-14T20:33:52.863Z,56.10
2023-02-14T20:36:20.376Z,47.58
2023-02-14T20:38:47.357Z,55.85
2023-02-14T20:41:16.541Z,51.70
2023-02-14T20:43:43.066Z,58.40
2023-02-14T20:46:09.685Z,62.05
2023-02-14T20:48:36.377Z,80.22
2023-02-14T20:51:14.006Z,70.07
2023-02-14T20:53:42.019Z,60.30
2023-02-14T20:56:09.330Z,66.13
2023-02-14T20:58:37.444Z,65.65
2023-02-14T21:01:08.129Z,61.58
2023-02-14T21:03:37.764Z,57.55
2023-02-14T21:06:06.683Z,59.27
2023-02-14T21:08:34.084Z,57.67
2023-02-14T21:11:01.110Z,63.28
2023-02-14T21:13:27.918Z,66.03
2023-02-14T21:15:54.484Z,75.72
2023-02-14T21:18:21.669Z,66.50
2023-02-14T21:20:48.183Z,72.35
2023-02-14T21:23:14.748Z,63.45
2023-02-14T21:25:41.331Z,54.45
2023-02-14T21:28:07.852Z,55.72
2023-02-14T21:30:34.382Z,71.83
2023-02-14T21:33:01.287Z,69.95
2023-02-14T21:35:27.849Z,58.85
2023-02-14T21:37:54.423Z,63.78
2023-02-14T21:40:22.281Z,49.67
2023-02-14T21:42:49.740Z,79.27
2023-02-14T21:45:34.754Z,76.95
2023-02-14T21:48:24.124Z,58.60
2023-02-14T21:50:50.632Z,95.63
2023-02-14T21:53:17.293Z,70.85
2023-02-14T21:55:46.060Z,58.03
2023-02-14T21:58:13.157Z,59.42
2023-02-14T22:00:39.690Z,65.90
2023-02-14T22:03:06.285Z,58.97
2023-02-14T22:05:32.863Z,74.47
2023-02-14T22:07:59.405Z,84.27
2023-02-14T22:10:26.115Z,98.00
2023-02-14T22:12:52.613Z,67.00
2023-02-14T22:15:19.161Z,77.43
2023-02-14T22:17:45.714Z,63.88
2023-02-14T22:20:12.555Z,60.30
2023-02-14T22:22:39.114Z,64.95
2023-02-14T22:25:05.946Z,124.00
2023-02-14T22:27:32.478Z,104.10
2023-02-14T22:29:58.990Z,93.93
2023-02-14T22:32:25.614Z,86.17
2023-02-14T22:34:52.230Z,73.28
2023-02-14T22:37:18.899Z,93.90
2023-02-14T22:39:45.442Z,72.38
2023-02-14T22:42:12.044Z,48.35
2023-02-14T22:44:38.561Z,60.87
2023-02-14T22:47:05.221Z,58.53
2023-02-14T22:49:31.725Z,106.50
2023-02-14T22:51:58.365Z,75.65
2023-02-14T22:54:24.907Z,104.75
2023-02-14T22:56:51.532Z,58.73
2023-02-14T22:59:20.780Z,76.18
2023-02-14T23:01:48.570Z,84.15
2023-02-14T23:04:16.795Z,137.70
2023-02-14T23:06:43.466Z,106.40
2023-02-14T23:09:12.080Z,48.17
2023-02-14T23:11:41.250Z,93.55
2023-02-14T23:14:27.131Z,85.90
2023-02-14T23:17:11.990Z,64.38
2023-02-14T23:19:57.093Z,122.93
2023-02-14T23:22:26.780Z,90.57
2023-02-14T23:24:55.366Z,102.95
2023-02-14T23:27:25.218Z,55.15
2023-02-14T23:29:51.797Z,75.20
2023-02-14T23:32:18.352Z,45.58
2023-02-14T23:34:45.506Z,47.07
2023-02-14T23:37:13.808Z,64.50
2023-02-14T23:39:40.783Z,69.40
2023-02-14T23:42:10.505Z,88.75
2023-02-14T23:44:37.847Z,57.10
2023-02-14T23:47:07.262Z,67.43
2023-02-14T23:49:35.702Z,68.20
2023-02-14T23:52:02.844Z,34.60
2023-02-14T23:54:29.423Z,109.50
2023-02-14T23:56:57.520Z,111.20
2023-02-14T23:59:24.674Z,37.37
